Time;durP1;ratioP1;P1;durP2;ratioP2;P2;SDS_P1;SDS_P2;PMS_P1;PMS_P2;Temp;Humidity;BMP_temperature;BMP_pressure;BME280_temperature;BME280_humidity;BME280_pressure;Samples;Min_cycle;Max_cycle;Signal;HPM_P1;HPM_P2
2023/01/22 00:02:20;;;;;;;23.17;13.65;;;-0.60;99.90;;;;;;5114106;27;20093;-62
2023/01/22 00:04:45;;;;;;;22.85;12.68;;;-0.60;99.90;;;;;;5098367;28;20538;-62
2023/01/22 00:07:11;;;;;;;20.80;11.60;;;-0.60;99.90;;;;;;5089791;28;20039;-62
2023/01/22 00:09:37;;;;;;;23.05;13.02;;;-0.60;99.90;;;;;;5093138;28;20077;-63
2023/01/22 00:12:03;;;;;;;24.83;14.23;;;-0.60;99.90;;;;;;5092076;28;20027;-63
2023/01/22 00:14:28;;;;;;;25.65;14.82;;;-0.60;99.90;;;;;;5093149;28;20043;-62
2023/01/22 00:16:54;;;;;;;24.58;14.55;;;-0.60;99.90;;;;;;5084584;28;20392;-62
2023/01/22 00:19:19;;;;;;;21.98;13.32;;;-0.60;99.90;;;;;;5090386;28;20073;-63
2023/01/22 00:21:45;;;;;;;22.60;13.27;;;-0.60;99.90;;;;;;5094595;28;20069;-63
2023/01/22 00:24:11;;;;;;;18.58;12.05;;;-0.60;99.90;;;;;;5097437;28;20462;-63
2023/01/22 00:26:36;;;;;;;22.50;13.68;;;-0.60;99.90;;;;;;5089429;28;20032;-62
2023/01/22 00:29:02;;;;;;;24.27;13.73;;;-0.60;99.90;;;;;;5089452;28;20016;-62
2023/01/22 00:31:28;;;;;;;23.48;14.52;;;-0.60;99.90;;;;;;5113949;27;20020;-62
2023/01/22 00:33:53;;;;;;;23.83;14.60;;;-0.60;99.90;;;;;;5092317;28;20035;-62
2023/01/22 00:36:20;;;;;;;25.48;14.25;;;-0.70;99.90;;;;;;5089452;28;20076;-62
2023/01/22 00:38:46;;;;;;;26.05;14.98;;;-0.70;99.90;;;;;;5097277;28;20524;-63
2023/01/22 00:41:12;;;;;;;26.33;15.38;;;-0.70;99.90;;;;;;5092862;28;20031;-62
2023/01/22 00:43:39;;;;;;;27.90;16.73;;;-0.70;99.90;;;;;;5089330;28;20452;-62
2023/01/22 00:46:06;;;;;;;28.15;16.77;;;-0.80;99.90;;;;;;5090055;28;20012;-63
2023/01/22 00:48:31;;;;;;;28.15;16.83;;;-0.80;99.90;;;;;;5092636;28;20107;-62
2023/01/22 00:50:57;;;;;;;27.58;17.15;;;-0.80;99.90;;;;;;5073827;28;20488;-63
2023/01/22 00:53:22;;;;;;;26.67;15.27;;;-0.90;99.90;;;;;;5092587;28;20532;-62
2023/01/22 00:56:00;;;;;;;27.40;15.90;;;-0.90;99.90;;;;;;5109301;27;20071;-62
2023/01/22 00:58:26;;;;;;;27.15;15.73;;;-0.80;99.90;;;;;;5089235;28;20366;-62
2023/01/22 01:00:51;;;;;;;25.48;15.63;;;-0.90;99.90;;;;;;5092308;28;20024;-62
2023/01/22 01:03:29;;;;;;;22.98;14.25;;;-0.80;99.90;;;;;;5097843;28;20468;-62
2023/01/22 01:06:02;;;;;;;22.77;14.48;;;-0.80;99.90;;;;;;5086002;28;20031;-62
2023/01/22 01:08:29;;;;;;;21.27;13.45;;;-0.80;99.90;;;;;;5070948;28;20102;-62
2023/01/22 01:11:00;;;;;;;22.75;14.60;;;-0.80;99.90;;;;;;5070571;28;20020;-62
2023/01/22 01:13:27;;;;;;;24.60;14.13;;;-0.80;99.90;;;;;;5082984;28;20109;-62
2023/01/22 01:16:01;;;;;;;22.35;14.27;;;-0.80;99.90;;;;;;5092230;28;20031;-62
2023/01/22 01:18:27;;;;;;;25.83;15.25;;;-0.80;99.90;;;;;;5089207;28;20111;-62
2023/01/22 01:20:54;;;;;;;24.70;15.10;;;-0.80;99.90;;;;;;5094373;28;20153;-62
2023/01/22 01:23:21;;;;;;;24.48;15.30;;;-0.80;99.90;;;;;;5093694;28;20030;-62
2023/01/22 01:25:46;;;;;;;23.52;14.63;;;-0.80;99.90;;;;;;5088696;28;20059;-62
2023/01/22 01:28:12;;;;;;;24.13;15.73;;;-0.80;99.90;;;;;;5073211;28;20062;-62
2023/01/22 01:30:37;;;;;;;20.30;13.25;;;-0.80;99.90;;;;;;5091066;28;20538;-62
2023/01/22 01:33:03;;;;;;;23.00;12.90;;;-0.80;99.90;;;;;;5076238;28;20024;-63
2023/01/22 01:35:28;;;;;;;24.88;14.98;;;-0.80;99.90;;;;;;5088734;28;20024;-62
2023/01/22 01:37:54;;;;;;;26.00;15.90;;;-0.80;99.90;;;;;;5072874;28;20027;-63
2023/01/22 01:40:19;;;;;;;24.30;14.75;;;-0.80;99.90;;;;;;5088788;28;20032;-62
2023/01/22 01:42:45;;;;;;;25.75;15.10;;;-0.80;99.90;;;;;;5070584;28;20051;-62
2023/01/22 01:45:33;;;;;;;26.92;15.57;;;-0.80;99.90;;;;;;5090477;27;20546;-62
2023/01/22 01:48:06;;;;;;;24.42;14.90;;;-0.80;99.90;;;;;;5113814;27;20023;-62
2023/01/22 01:50:32;;;;;;;24.63;15.52;;;-0.80;99.90;;;;;;5087890;28;20024;-62
2023/01/22 01:52:59;;;;;;;23.15;13.55;;;-0.80;99.90;;;;;;5093774;28;20028;-62
2023/01/22 01:55:30;;;;;;;23.52;13.73;;;-0.80;99.90;;;;;;5099396;28;20035;-62
2023/01/22 01:58:05;;;;;;;24.10;14.98;;;-0.70;99.90;;;;;;5096588;28;20026;-62
2023/01/22 02:00:34;;;;;;;25.63;15.60;;;-0.70;99.90;;;;;;5088063;28;20024;-62
2023/01/22 02:03:00;;;;;;;19.38;13.38;;;-0.80;99.90;;;;;;5093371;28;20047;-62
2023/01/22 02:05:29;;;;;;;21.20;13.75;;;-0.80;99.90;;;;;;5069888;28;20966;-62
2023/01/22 02:07:55;;;;;;;22.55;13.98;;;-0.80;99.90;;;;;;5088069;28;20494;-62
2023/01/22 02:10:20;;;;;;;22.88;13.20;;;-0.80;99.90;;;;;;5069693;28;20042;-62
2023/01/22 02:12:46;;;;;;;19.67;12.82;;;-0.80;99.90;;;;;;5089093;28;20028;-62
2023/01/22 02:15:12;;;;;;;22.80;14.13;;;-0.80;99.90;;;;;;5098004;28;20048;-62
2023/01/22 02:17:39;;;;;;;18.90;12.10;;;-0.80;99.90;;;;;;5093811;28;20563;-62
2023/01/22 02:20:05;;;;;;;24.50;14.27;;;-0.80;99.90;;;;;;5088931;28;20028;-62
2023/01/22 02:22:33;;;;;;;23.55;14.73;;;-0.80;99.90;;;;;;5094191;28;20104;-62
2023/01/22 02:24:59;;;;;;;22.48;13.07;;;-0.80;99.90;;;;;;5118410;27;20028;-62
2023/01/22 02:27:25;;;;;;;22.67;14.13;;;-0.80;99.90;;;;;;5079333;28;20085;-62
2023/01/22 02:29:50;;;;;;;21.25;12.93;;;-0.80;99.90;;;;;;5087651;28;20062;-62
2023/01/22 02:32:16;;;;;;;20.50;12.40;;;-0.80;99.90;;;;;;5090462;28;20084;-63
2023/01/22 02:34:42;;;;;;;23.95;12.88;;;-0.80;99.90;;;;;;5079616;28;20545;-63
2023/01/22 02:37:07;;;;;;;21.95;13.00;;;-0.80;99.90;;;;;;5090662;28;20091;-63
2023/01/22 02:39:33;;;;;;;19.35;12.32;;;-0.80;99.90;;;;;;5087356;28;20020;-63
2023/01/22 02:42:00;;;;;;;18.48;11.55;;;-0.80;99.90;;;;;;5087963;28;20674;-62
2023/01/22 02:44:25;;;;;;;19.70;11.90;;;-0.80;99.90;;;;;;5087856;28;20692;-63
2023/01/22 02:46:51;;;;;;;19.90;12.52;;;-0.80;99.90;;;;;;5087935;28;20481;-63
2023/01/22 02:49:16;;;;;;;18.73;11.48;;;-0.80;99.90;;;;;;5072432;28;20051;-62
2023/01/22 02:51:42;;;;;;;21.85;13.13;;;-0.80;99.90;;;;;;5087475;28;20024;-63
2023/01/22 02:54:08;;;;;;;21.85;13.15;;;-0.80;99.90;;;;;;5090396;28;20028;-63
2023/01/22 02:56:33;;;;;;;21.98;13.52;;;-0.80;99.90;;;;;;5087337;28;20071;-62
2023/01/22 02:59:01;;;;;;;19.33;11.80;;;-0.80;99.90;;;;;;5082520;28;20055;-62
2023/01/22 03:01:27;;;;;;;20.35;12.23;;;-0.70;99.90;;;;;;5090037;28;20507;-63
2023/01/22 03:03:54;;;;;;;19.88;12.60;;;-0.70;99.90;;;;;;5069025;28;20118;-62
2023/01/22 03:06:22;;;;;;;20.05;11.90;;;-0.70;99.90;;;;;;5074104;28;20020;-63
2023/01/22 03:09:06;;;;;;;20.55;11.80;;;-0.70;99.90;;;;;;5087184;28;20048;-63
2023/01/22 03:11:34;;;;;;;21.52;13.85;;;-0.60;99.90;;;;;;5073053;28;20072;-63
2023/01/22 03:22:14;;;;;;;22.33;13.57;;;-0.70;99.90;;;;;;5087374;28;20031;-63
2023/01/22 03:24:43;;;;;;;23.35;14.20;;;-0.70;99.90;;;;;;5087197;28;20021;-62
2023/01/22 03:27:09;;;;;;;21.17;13.18;;;-0.70;99.90;;;;;;5092710;28;20374;-63
2023/01/22 03:29:38;;;;;;;22.50;13.65;;;-0.70;99.90;;;;;;5073175;28;20472;-63
2023/01/22 03:32:06;;;;;;;20.25;11.20;;;-0.70;99.90;;;;;;5089645;28;20022;-63
2023/01/22 03:34:32;;;;;;;21.92;12.88;;;-0.70;99.90;;;;;;5074272;28;20731;-62
2023/01/22 03:36:58;;;;;;;20.88;13.48;;;-0.70;99.90;;;;;;5089634;28;20050;-63
2023/01/22 03:39:25;;;;;;;22.40;13.43;;;-0.80;99.90;;;;;;5086832;28;20020;-62
2023/01/22 03:41:50;;;;;;;23.10;14.85;;;-0.70;99.90;;;;;;5092264;28;20068;-63
2023/01/22 03:44:16;;;;;;;27.25;14.75;;;-0.70;99.90;;;;;;5111246;28;20028;-63
2023/01/22 03:46:41;;;;;;;24.33;14.38;;;-0.70;99.90;;;;;;5086996;28;20098;-63
2023/01/22 03:49:07;;;;;;;24.10;14.38;;;-0.70;99.90;;;;;;5092555;28;20405;-63
2023/01/22 03:51:33;;;;;;;24.38;14.68;;;-0.70;99.90;;;;;;5079975;28;20480;-63
2023/01/22 03:53:59;;;;;;;23.17;14.10;;;-0.70;99.90;;;;;;5101130;28;20058;-62
2023/01/22 03:56:25;;;;;;;24.80;14.88;;;-0.70;99.90;;;;;;5094098;28;20020;-62
2023/01/22 03:58:51;;;;;;;24.13;13.93;;;-0.60;99.90;;;;;;5090908;28;20058;-63
2023/01/22 04:01:20;;;;;;;22.75;13.48;;;-0.60;99.90;;;;;;5090486;28;20024;-63
2023/01/22 04:03:46;;;;;;;21.92;14.40;;;-0.60;99.90;;;;;;5097321;28;20468;-62
2023/01/22 04:06:12;;;;;;;24.33;14.07;;;-0.50;99.90;;;;;;5083573;28;20031;-63
2023/01/22 04:08:40;;;;;;;23.52;14.23;;;-0.50;99.90;;;;;;5075325;28;20017;-62
2023/01/22 04:11:06;;;;;;;25.98;14.70;;;-0.40;99.90;;;;;;5091439;28;20025;-62
2023/01/22 04:13:33;;;;;;;27.63;16.77;;;-0.40;99.90;;;;;;5079352;28;20113;-63
2023/01/22 04:15:59;;;;;;;26.88;14.20;;;-0.40;99.90;;;;;;5082956;28;20035;-63
2023/01/22 04:18:25;;;;;;;25.00;15.18;;;-0.30;99.90;;;;;;5090090;28;20031;-62
2023/01/22 04:20:51;;;;;;;22.73;14.63;;;-0.30;99.90;;;;;;5092832;28;20410;-62
2023/01/22 04:23:18;;;;;;;25.27;15.35;;;-0.30;99.90;;;;;;5092476;28;20020;-62
2023/01/22 04:25:44;;;;;;;23.10;14.27;;;-0.20;99.90;;;;;;5095304;28;20019;-62
2023/01/22 04:28:10;;;;;;;21.25;14.38;;;-0.20;99.90;;;;;;5092748;28;20023;-62
2023/01/22 04:30:37;;;;;;;26.48;14.77;;;-0.20;99.90;;;;;;5076902;28;20073;-62
2023/01/22 04:33:03;;;;;;;25.25;15.20;;;-0.20;99.90;;;;;;5095230;28;20083;-63
2023/01/22 04:35:28;;;;;;;24.73;15.38;;;-0.20;99.90;;;;;;5092870;28;20472;-63
2023/01/22 04:37:54;;;;;;;26.85;15.45;;;-0.10;99.90;;;;;;5074072;28;20069;-62
2023/01/22 04:40:20;;;;;;;23.95;15.18;;;-0.10;99.90;;;;;;5112139;27;20496;-63
2023/01/22 04:42:46;;;;;;;23.25;14.70;;;-0.10;99.90;;;;;;5089620;28;20028;-63
2023/01/22 04:45:12;;;;;;;24.95;15.30;;;-0.10;99.90;;;;;;5092621;28;20141;-63
2023/01/22 04:47:43;;;;;;;24.02;15.13;;;-0.10;99.90;;;;;;5095070;28;20043;-63
2023/01/22 04:50:13;;;;;;;23.05;14.95;;;0.00;99.90;;;;;;5089791;28;20020;-63
2023/01/22 04:52:39;;;;;;;22.02;15.30;;;0.00;99.90;;;;;;5092836;28;20024;-63
2023/01/22 04:55:05;;;;;;;24.92;15.77;;;0.00;99.90;;;;;;5092666;28;20073;-63
2023/01/22 04:57:30;;;;;;;24.98;15.52;;;0.00;99.90;;;;;;5092570;28;20042;-63
2023/01/22 04:59:56;;;;;;;28.17;14.70;;;0.00;99.90;;;;;;5094024;28;20020;-63
2023/01/22 05:02:21;;;;;;;25.52;15.18;;;0.00;99.90;;;;;;5090253;28;20054;-63
2023/01/22 05:04:47;;;;;;;23.02;14.50;;;0.00;99.90;;;;;;5088330;28;20024;-62
2023/01/22 05:07:12;;;;;;;25.35;15.65;;;0.00;99.90;;;;;;5089062;28;20060;-63
2023/01/22 05:09:38;;;;;;;23.60;15.55;;;0.10;99.90;;;;;;5090464;28;20024;-63
2023/01/22 05:12:04;;;;;;;23.95;15.43;;;0.00;99.90;;;;;;5088824;28;20081;-63
2023/01/22 05:14:29;;;;;;;27.95;16.80;;;0.10;99.90;;;;;;5109906;27;20051;-63
2023/01/22 05:16:55;;;;;;;24.77;15.23;;;0.10;99.90;;;;;;5069342;28;20064;-63
2023/01/22 05:19:20;;;;;;;23.42;14.90;;;0.10;99.90;;;;;;5068897;28;20035;-63
2023/01/22 05:21:46;;;;;;;27.05;16.15;;;0.10;99.90;;;;;;5068826;28;20024;-63
2023/01/22 05:24:11;;;;;;;27.70;16.40;;;0.10;99.90;;;;;;5068950;28;20032;-63
2023/01/22 05:26:37;;;;;;;27.08;16.00;;;0.10;99.90;;;;;;5068861;28;20482;-63
2023/01/22 05:29:02;;;;;;;26.77;15.90;;;0.10;99.90;;;;;;5070783;28;20028;-63
2023/01/22 05:31:28;;;;;;;25.15;16.55;;;0.10;99.90;;;;;;5076135;28;20428;-63
2023/01/22 05:33:53;;;;;;;25.92;15.75;;;0.10;99.90;;;;;;5072990;28;20388;-63
2023/01/22 05:36:19;;;;;;;25.48;16.25;;;0.10;99.90;;;;;;5068737;28;20035;-63
2023/01/22 05:38:45;;;;;;;25.02;15.35;;;0.10;99.90;;;;;;5073244;28;20477;-63
2023/01/22 05:41:11;;;;;;;25.80;15.55;;;0.10;99.90;;;;;;5071494;28;20015;-63
2023/01/22 05:43:37;;;;;;;24.52;15.40;;;0.20;99.90;;;;;;5078579;28;20020;-63
2023/01/22 05:46:03;;;;;;;24.50;14.95;;;0.20;99.90;;;;;;5070698;28;20108;-63
2023/01/22 05:48:31;;;;;;;26.23;15.52;;;0.20;99.90;;;;;;5070350;28;20036;-63
2023/01/22 05:51:00;;;;;;;23.95;15.20;;;0.20;99.90;;;;;;5066805;28;20123;-63
2023/01/22 05:53:26;;;;;;;23.73;14.83;;;0.20;99.90;;;;;;5071864;28;20024;-63
2023/01/22 05:55:51;;;;;;;23.63;15.57;;;0.20;99.90;;;;;;5070494;28;20103;-63
2023/01/22 05:58:17;;;;;;;24.77;15.65;;;0.20;99.90;;;;;;5067855;28;20024;-63
2023/01/22 06:00:42;;;;;;;24.92;16.27;;;0.20;99.90;;;;;;5069259;28;20485;-63
2023/01/22 06:03:08;;;;;;;25.13;15.57;;;0.20;99.90;;;;;;5068126;28;20024;-62
2023/01/22 06:05:33;;;;;;;22.50;14.95;;;0.20;99.90;;;;;;5070783;28;20013;-62
2023/01/22 06:07:59;;;;;;;25.88;14.85;;;0.20;99.90;;;;;;5078171;28;20036;-63
2023/01/22 06:10:24;;;;;;;21.48;14.43;;;0.20;99.90;;;;;;5066445;28;20060;-63
2023/01/22 06:12:49;;;;;;;25.08;15.80;;;0.20;99.90;;;;;;5068342;28;20031;-62
2023/01/22 06:15:15;;;;;;;25.67;15.68;;;0.20;99.90;;;;;;5084867;28;20036;-62
2023/01/22 06:17:41;;;;;;;22.65;14.85;;;0.20;99.90;;;;;;5095240;28;20024;-63
2023/01/22 06:20:08;;;;;;;23.63;14.95;;;0.20;99.90;;;;;;5075307;28;20739;-63
2023/01/22 06:22:34;;;;;;;26.58;16.05;;;0.20;99.90;;;;;;5087781;28;20030;-63
2023/01/22 06:24:59;;;;;;;26.30;16.77;;;0.30;99.90;;;;;;5087983;28;20450;-62
2023/01/22 06:27:25;;;;;;;23.23;14.30;;;0.30;99.90;;;;;;5090413;28;20027;-62
2023/01/22 06:29:50;;;;;;;22.65;14.75;;;0.30;99.90;;;;;;5074506;28;20036;-63
2023/01/22 06:32:16;;;;;;;20.83;13.90;;;0.30;99.90;;;;;;5088232;28;20103;-63
2023/01/22 06:34:41;;;;;;;23.10;15.50;;;0.40;99.90;;;;;;5092832;28;20032;-63
2023/01/22 06:37:07;;;;;;;23.13;15.25;;;0.30;99.90;;;;;;5074386;28;20028;-63
2023/01/22 06:39:32;;;;;;;21.08;14.73;;;0.30;99.90;;;;;;5087573;28;20103;-63
2023/01/22 06:41:58;;;;;;;24.17;14.88;;;0.30;99.90;;;;;;5092556;28;20028;-63
2023/01/22 06:44:24;;;;;;;21.88;15.45;;;0.30;99.90;;;;;;5093560;28;20382;-63
2023/01/22 06:46:49;;;;;;;21.17;14.40;;;0.30;99.90;;;;;;5099285;28;20065;-62
2023/01/22 06:49:15;;;;;;;22.58;14.13;;;0.30;99.90;;;;;;5097221;28;20484;-62
2023/01/22 06:51:40;;;;;;;24.05;14.65;;;0.30;99.90;;;;;;5086276;28;20037;-62
2023/01/22 06:54:06;;;;;;;23.67;14.98;;;0.30;99.90;;;;;;5090754;28;20027;-63
2023/01/22 06:56:32;;;;;;;19.77;13.32;;;0.30;99.90;;;;;;5110970;28;20031;-63
2023/01/22 06:58:57;;;;;;;20.88;13.98;;;0.30;99.90;;;;;;5084204;28;20103;-63
2023/01/22 07:01:24;;;;;;;18.10;12.82;;;0.30;99.90;;;;;;5104102;28;20024;-63
2023/01/22 07:03:50;;;;;;;18.63;13.23;;;0.30;99.90;;;;;;5106241;28;20115;-63
2023/01/22 07:06:17;;;;;;;17.92;12.73;;;0.30;99.90;;;;;;5107322;28;20528;-63
2023/01/22 07:08:43;;;;;;;22.20;13.15;;;0.30;99.90;;;;;;5108124;28;20020;-63
2023/01/22 07:11:08;;;;;;;22.23;12.95;;;0.30;99.90;;;;;;5105724;28;20032;-62
2023/01/22 07:13:34;;;;;;;19.77;13.02;;;0.40;99.90;;;;;;5107472;28;20028;-63
2023/01/22 07:16:01;;;;;;;18.60;12.50;;;0.40;99.90;;;;;;5089567;28;20024;-63
2023/01/22 07:18:27;;;;;;;21.88;13.95;;;0.30;99.90;;;;;;5107523;28;20043;-63
2023/01/22 07:20:53;;;;;;;20.83;12.07;;;0.40;99.90;;;;;;5095512;28;20025;-63
2023/01/22 07:23:19;;;;;;;16.92;11.43;;;0.40;99.90;;;;;;5106938;28;20035;-63
2023/01/22 07:25:45;;;;;;;19.00;12.63;;;0.40;99.90;;;;;;5102721;28;20020;-63
2023/01/22 07:28:13;;;;;;;19.35;11.85;;;0.40;99.90;;;;;;5093390;28;20035;-63
2023/01/22 07:30:40;;;;;;;18.75;12.20;;;0.40;99.90;;;;;;5106391;28;20024;-63
2023/01/22 07:33:06;;;;;;;16.83;11.50;;;0.40;99.90;;;;;;5094547;28;20075;-62
2023/01/22 07:35:31;;;;;;;17.98;11.38;;;0.40;99.90;;;;;;5094848;28;20024;-63
2023/01/22 07:37:59;;;;;;;17.58;11.18;;;0.40;99.90;;;;;;5094503;28;20073;-62
2023/01/22 07:40:25;;;;;;;15.38;11.10;;;0.40;99.90;;;;;;5076680;28;20123;-63
2023/01/22 07:42:51;;;;;;;19.00;12.40;;;0.40;99.90;;;;;;5076529;28;20017;-63
2023/01/22 07:45:18;;;;;;;16.45;10.25;;;0.40;99.90;;;;;;5097315;28;20027;-63
2023/01/22 07:48:10;;;;;;;16.10;10.70;;;0.40;99.90;;;;;;5086158;28;20031;-63
2023/01/22 07:50:38;;;;;;;18.45;9.73;;;0.50;99.90;;;;;;5073880;27;20032;-63
2023/01/22 07:53:05;;;;;;;15.13;9.82;;;0.40;99.90;;;;;;5114550;28;20536;-63
2023/01/22 07:55:30;;;;;;;18.33;10.13;;;0.50;99.90;;;;;;5104879;28;20035;-63
2023/01/22 07:57:58;;;;;;;19.15;10.57;;;0.50;99.90;;;;;;5108153;28;20032;-63
2023/01/22 08:00:23;;;;;;;16.95;10.68;;;0.50;99.90;;;;;;5106083;28;20068;-63
2023/01/22 08:02:49;;;;;;;14.20;9.88;;;0.50;99.90;;;;;;5094330;28;20415;-63
2023/01/22 08:05:14;;;;;;;14.60;9.48;;;0.50;99.90;;;;;;5111722;28;20024;-63
2023/01/22 08:07:40;;;;;;;18.70;10.95;;;0.50;99.90;;;;;;5113054;28;20035;-63
2023/01/22 08:10:06;;;;;;;15.95;9.05;;;0.50;99.90;;;;;;5111091;28;20028;-63
2023/01/22 08:12:31;;;;;;;15.57;10.52;;;0.50;99.90;;;;;;5110140;28;20020;-63
2023/01/22 08:14:57;;;;;;;16.63;9.05;;;0.50;99.90;;;;;;5093592;28;20040;-63
2023/01/22 08:17:23;;;;;;;15.65;10.05;;;0.50;99.90;;;;;;5110265;28;20469;-63
2023/01/22 08:19:48;;;;;;;16.15;10.27;;;0.50;99.90;;;;;;5112266;28;20509;-63
2023/01/22 08:22:14;;;;;;;13.55;9.68;;;0.50;99.90;;;;;;5109439;28;20078;-62
2023/01/22 08:24:41;;;;;;;14.88;9.82;;;0.50;99.90;;;;;;5111993;28;20016;-63
2023/01/22 08:27:07;;;;;;;15.35;9.75;;;0.50;99.90;;;;;;5090964;28;20023;-63
2023/01/22 08:29:32;;;;;;;17.63;10.15;;;0.50;99.90;;;;;;5109836;28;20399;-63
2023/01/22 08:31:58;;;;;;;14.50;10.35;;;0.50;99.90;;;;;;5106589;27;20023;-63
2023/01/22 08:34:23;;;;;;;16.45;9.90;;;0.50;99.90;;;;;;5108652;27;20556;-63
2023/01/22 08:36:49;;;;;;;14.77;9.50;;;0.60;99.90;;;;;;5074764;28;20028;-62
2023/01/22 08:39:14;;;;;;;16.02;9.60;;;0.60;99.90;;;;;;5110896;28;20092;-62
2023/01/22 08:41:40;;;;;;;13.63;9.48;;;0.60;99.90;;;;;;5112050;28;20023;-63
2023/01/22 08:44:06;;;;;;;14.38;10.00;;;0.70;99.90;;;;;;5112485;28;20401;-63
2023/01/22 08:46:34;;;;;;;14.32;9.30;;;0.70;99.90;;;;;;5094196;28;20016;-63
2023/01/22 08:49:02;;;;;;;15.00;10.02;;;0.70;99.90;;;;;;5106080;28;20032;-63
2023/01/22 08:51:27;;;;;;;13.50;9.13;;;0.70;99.90;;;;;;5093435;28;20047;-63
2023/01/22 08:53:52;;;;;;;14.82;9.13;;;0.70;99.90;;;;;;5110305;28;20473;-63
2023/01/22 08:56:18;;;;;;;13.73;9.38;;;0.70;99.90;;;;;;5081842;28;20115;-62
2023/01/22 08:58:47;;;;;;;13.35;9.00;;;0.70;99.90;;;;;;5106646;28;20026;-62
2023/01/22 09:01:15;;;;;;;14.02;9.23;;;0.70;99.90;;;;;;5110738;28;20026;-63
2023/01/22 09:03:42;;;;;;;13.63;9.40;;;0.80;99.90;;;;;;5070700;28;20577;-63
2023/01/22 09:06:07;;;;;;;14.38;9.45;;;0.80;99.90;;;;;;5097233;28;20058;-63
2023/01/22 09:08:33;;;;;;;11.63;8.85;;;0.80;99.90;;;;;;5101107;28;20482;-63
2023/01/22 09:10:58;;;;;;;13.40;9.00;;;0.80;99.90;;;;;;5100035;28;20036;-63
2023/01/22 09:13:24;;;;;;;13.00;9.15;;;0.80;99.90;;;;;;5094939;28;20560;-62
2023/01/22 09:15:54;;;;;;;15.27;9.48;;;0.80;99.90;;;;;;5100210;28;20104;-63
2023/01/22 09:18:19;;;;;;;12.43;8.60;;;0.80;99.90;;;;;;5073693;28;20043;-63
2023/01/22 09:20:45;;;;;;;13.85;9.38;;;0.80;99.90;;;;;;5093426;28;20447;-63
2023/01/22 09:23:10;;;;;;;15.55;9.48;;;0.90;99.90;;;;;;5100846;28;20035;-63
2023/01/22 09:25:36;;;;;;;15.43;10.60;;;0.90;99.90;;;;;;5094967;28;20026;-62
2023/01/22 09:28:03;;;;;;;13.80;9.85;;;0.90;99.90;;;;;;5074071;28;20086;-63
2023/01/22 09:30:29;;;;;;;14.38;9.63;;;0.90;99.90;;;;;;5094881;28;20032;-63
2023/01/22 09:32:55;;;;;;;11.30;8.82;;;0.90;99.90;;;;;;5092624;28;20043;-63
2023/01/22 09:35:20;;;;;;;15.80;9.80;;;0.90;99.90;;;;;;5121617;27;20114;-63
2023/01/22 09:37:46;;;;;;;14.07;9.57;;;0.90;99.90;;;;;;5099688;28;20392;-62
2023/01/22 09:40:30;;;;;;;14.68;9.43;;;0.90;99.90;;;;;;5094058;28;20032;-63
2023/01/22 09:43:35;;;;;;;13.60;9.48;;;1.00;99.90;;;;;;5090507;28;20371;-63
2023/01/22 09:46:07;;;;;;;15.18;9.35;;;1.00;99.90;;;;;;5013506;28;20117;-63
2023/01/22 09:48:39;;;;;;;13.43;9.13;;;0.90;99.90;;;;;;5094152;28;20028;-63
2023/01/22 09:51:05;;;;;;;10.68;7.85;;;1.00;99.90;;;;;;5091772;28;20102;-62
2023/01/22 09:53:32;;;;;;;12.02;8.60;;;1.10;99.90;;;;;;5109509;28;20046;-62
2023/01/22 09:55:59;;;;;;;12.65;9.13;;;1.10;99.90;;;;;;5110574;28;20011;-63
2023/01/22 09:58:25;;;;;;;11.27;8.18;;;1.10;99.90;;;;;;5106227;28;20036;-63
2023/01/22 10:00:55;;;;;;;11.65;8.13;;;1.10;99.90;;;;;;5110695;28;20456;-63
2023/01/22 10:03:24;;;;;;;;;;;1.10;99.90;;;;;;5111040;28;20011;-62
2023/01/22 10:06:07;;;;;;;12.88;8.32;;;1.10;99.90;;;;;;5107565;28;19976;-63
2023/01/22 10:08:43;;;;;;;12.18;8.40;;;1.10;99.90;;;;;;5107790;28;20050;-63
2023/01/22 10:11:09;;;;;;;10.70;7.55;;;1.10;99.90;;;;;;5108580;28;20057;-62
2023/01/22 10:13:37;;;;;;;10.85;7.70;;;1.20;99.90;;;;;;5089682;28;20023;-63
2023/01/22 10:16:04;;;;;;;11.57;8.07;;;1.20;99.90;;;;;;5091697;28;20040;-62
2023/01/22 10:18:36;;;;;;;13.95;9.07;;;1.20;99.90;;;;;;5081098;28;20446;-62
2023/01/22 10:21:05;;;;;;;11.45;8.00;;;1.20;99.90;;;;;;5105203;28;20023;-62
2023/01/22 10:23:33;;;;;;;10.63;8.10;;;1.20;99.90;;;;;;5091845;28;20089;-63
2023/01/22 10:26:23;;;;;;;10.05;7.10;;;1.20;99.90;;;;;;5108798;28;20016;-62
2023/01/22 10:28:53;;;;;;;12.35;8.10;;;1.30;99.90;;;;;;5105705;28;20047;-62
2023/01/22 10:31:32;;;;;;;10.32;8.00;;;1.30;99.90;;;;;;5106493;28;20058;-63
2023/01/22 10:34:19;;;;;;;11.75;8.82;;;1.30;99.90;;;;;;5105741;28;20443;-62
2023/01/22 10:36:53;;;;;;;11.50;8.48;;;1.30;99.90;;;;;;5090473;28;20485;-62
2023/01/22 10:39:19;;;;;;;10.50;7.97;;;1.30;99.90;;;;;;5105460;28;20024;-62
2023/01/22 10:41:47;;;;;;;10.90;7.32;;;1.40;99.90;;;;;;5109906;28;20091;-63
2023/01/22 10:44:22;;;;;;;10.65;8.25;;;1.40;99.90;;;;;;5108914;28;20016;-62
2023/01/22 10:46:49;;;;;;;10.18;7.18;;;1.40;99.90;;;;;;5087436;28;20061;-62
2023/01/22 10:49:26;;;;;;;9.30;7.25;;;1.40;99.90;;;;;;5089153;28;20483;-62
2023/01/22 10:51:59;;;;;;;15.45;8.52;;;1.50;99.90;;;;;;5108394;28;20023;-62
2023/01/22 10:54:42;;;;;;;11.77;8.48;;;1.40;99.90;;;;;;5109215;28;20077;-62
2023/01/22 10:57:26;;;;;;;10.10;7.60;;;1.40;99.90;;;;;;5090330;28;20119;-62
2023/01/22 11:00:12;;;;;;;12.88;8.10;;;1.50;99.90;;;;;;5104773;28;20048;-62
2023/01/22 11:02:42;;;;;;;10.77;7.63;;;1.40;99.90;;;;;;5111560;28;20043;-62
2023/01/22 11:05:22;;;;;;;11.27;8.20;;;1.50;99.90;;;;;;5093765;28;20106;-62
2023/01/22 11:07:56;;;;;;;12.85;8.55;;;1.50;99.90;;;;;;5109264;28;20039;-62
2023/01/22 11:10:44;;;;;;;13.43;7.80;;;1.50;99.90;;;;;;5107057;28;20016;-62
2023/01/22 11:13:14;;;;;;;11.45;8.98;;;1.50;99.90;;;;;;5112793;28;20132;-62
2023/01/22 11:15:52;;;;;;;11.13;8.48;;;1.50;99.90;;;;;;5107186;28;20123;-63
2023/01/22 11:18:24;;;;;;;14.07;8.35;;;1.50;99.90;;;;;;5108880;28;20027;-63
2023/01/22 11:20:54;;;;;;;10.82;7.57;;;1.50;99.90;;;;;;5106752;28;20020;-62
2023/01/22 11:23:37;;;;;;;9.35;7.00;;;1.60;99.90;;;;;;5092944;28;20076;-63
2023/01/22 11:26:18;;;;;;;15.15;8.85;;;1.60;99.90;;;;;;5109454;28;20043;-63
2023/01/22 11:29:09;;;;;;;10.85;7.22;;;1.70;99.90;;;;;;5108699;28;20020;-63
2023/01/22 11:31:53;;;;;;;10.15;7.57;;;1.70;99.90;;;;;;5109599;28;20095;-63
2023/01/22 11:34:55;;;;;;;12.57;8.75;;;1.70;99.90;;;;;;5111320;28;20392;-63
2023/01/22 11:37:52;;;;;;;12.02;9.13;;;1.70;99.90;;;;;;5099769;28;20071;-63
2023/01/22 11:40:37;;;;;;;10.82;8.02;;;1.80;99.90;;;;;;5110285;28;20379;-63
2023/01/22 11:43:12;;;;;;;10.90;7.63;;;1.70;99.90;;;;;;5107624;28;20018;-63
2023/01/22 11:46:19;;;;;;;10.80;7.72;;;1.80;99.90;;;;;;5112787;28;20012;-63
2023/01/22 11:49:22;;;;;;;12.52;8.38;;;1.80;99.90;;;;;;5060612;28;20040;-63
2023/01/22 11:52:12;;;;;;;11.25;8.40;;;1.80;99.90;;;;;;5110221;28;20030;-63
2023/01/22 11:54:56;;;;;;;10.95;7.85;;;1.80;99.90;;;;;;5112740;28;20189;-63
2023/01/22 11:57:29;;;;;;;10.25;7.80;;;1.90;99.90;;;;;;5112732;27;20388;-63
2023/01/22 12:00:26;;;;;;;11.52;8.38;;;1.90;99.90;;;;;;5109248;28;20560;-63
2023/01/22 12:03:11;;;;;;;12.75;8.25;;;1.90;99.90;;;;;;5106691;28;20064;-63
2023/01/22 12:06:11;;;;;;;13.63;8.35;;;1.90;99.90;;;;;;5107415;28;20019;-63
2023/01/22 12:08:55;;;;;;;11.40;7.72;;;1.80;99.90;;;;;;5088945;28;20111;-63
2023/01/22 12:11:28;;;;;;;12.48;8.23;;;1.90;99.90;;;;;;5106567;28;20031;-63
2023/01/22 12:14:09;;;;;;;10.65;8.07;;;1.80;99.90;;;;;;5105141;28;20381;-64
2023/01/22 12:16:48;;;;;;;12.85;8.60;;;1.80;99.90;;;;;;5110087;28;20027;-63
2023/01/22 12:19:21;;;;;;;11.37;8.47;;;1.80;99.90;;;;;;5108869;28;20023;-63
2023/01/22 12:21:58;;;;;;;12.30;8.10;;;1.80;99.90;;;;;;5103120;28;20020;-63
2023/01/22 12:24:48;;;;;;;14.27;8.50;;;1.90;99.90;;;;;;5102313;28;20027;-63
2023/01/22 12:27:27;;;;;;;14.27;8.25;;;1.90;99.90;;;;;;5089164;28;20025;-63
2023/01/22 12:30:18;;;;;;;11.18;8.60;;;2.00;99.90;;;;;;5109752;28;20028;-63
2023/01/22 12:32:55;;;;;;;11.73;8.05;;;2.00;99.90;;;;;;5089440;28;20023;-63
2023/01/22 12:35:22;;;;;;;11.07;8.63;;;2.00;99.90;;;;;;5108340;27;20377;-63
2023/01/22 12:37:53;;;;;;;11.32;8.30;;;2.00;99.90;;;;;;5104906;28;20020;-63
2023/01/22 12:40:26;;;;;;;11.57;8.77;;;2.00;99.90;;;;;;5109172;28;20020;-63
2023/01/22 12:43:02;;;;;;;12.82;8.45;;;2.00;99.90;;;;;;5107813;28;20397;-63
2023/01/22 12:46:03;;;;;;;13.38;8.90;;;2.10;99.90;;;;;;5105977;28;20516;-63
2023/01/22 12:48:40;;;;;;;10.32;8.70;;;2.10;99.90;;;;;;5107798;28;20057;-63
2023/01/22 12:51:42;;;;;;;11.40;8.32;;;2.20;99.90;;;;;;5102736;28;20024;-63
2023/01/22 12:54:08;;;;;;;14.55;8.82;;;2.20;99.90;;;;;;5107709;28;20046;-63
2023/01/22 12:56:34;;;;;;;15.05;9.02;;;2.20;99.90;;;;;;5109143;28;20090;-64
2023/01/22 12:59:00;;;;;;;10.02;7.30;;;2.20;99.90;;;;;;5109761;28;20500;-64